Time;durP1;ratioP1;P1;durP2;ratioP2;P2;SDS_P1;SDS_P2;PMS_P1;PMS_P2;Temp;Humidity;BMP_temperature;BMP_pressure;BME280_temperature;BME280_humidity;BME280_pressure;Samples;Min_cycle;Max_cycle;Signal;HPM_P1;HPM_P2
2021/09/24 00:01:38;;;;;;;15.80;2.70;;;14.20;99.90;;;;;;5036296;28;20448;-51
2021/09/24 00:04:06;;;;;;;7.80;2.33;;;14.10;99.90;;;;;;5035329;28;20491;-48
2021/09/24 00:06:33;;;;;;;4.27;1.80;;;14.10;99.90;;;;;;5036131;28;20471;-46
2021/09/24 00:08:59;;;;;;;7.07;1.40;;;14.10;99.90;;;;;;5036940;28;20522;-49
2021/09/24 00:11:26;;;;;;;5.47;2.47;;;14.00;99.90;;;;;;5036286;28;20475;-50
2021/09/24 00:13:54;;;;;;;13.03;2.07;;;14.10;99.90;;;;;;5036821;28;20452;-48
2021/09/24 00:16:21;;;;;;;15.87;3.47;;;14.00;99.90;;;;;;5036199;28;20522;-48
2021/09/24 00:18:47;;;;;;;12.00;2.27;;;14.00;99.90;;;;;;5036440;28;20495;-49
2021/09/24 00:21:14;;;;;;;7.40;2.10;;;13.90;99.90;;;;;;5036325;28;20448;-51
2021/09/24 00:23:40;;;;;;;9.80;1.80;;;13.90;99.90;;;;;;5036344;28;20526;-51
2021/09/24 00:26:07;;;;;;;17.83;2.00;;;13.90;99.90;;;;;;5035646;28;20882;-50
2021/09/24 00:28:34;;;;;;;6.47;1.73;;;13.90;99.90;;;;;;5036197;28;20502;-47
2021/09/24 00:31:02;;;;;;;4.20;1.80;;;13.80;99.90;;;;;;5036091;28;20483;-48
2021/09/24 00:33:28;;;;;;;8.30;2.27;;;13.80;99.90;;;;;;5035867;28;20447;-47
2021/09/24 00:35:55;;;;;;;14.47;1.90;;;13.80;99.90;;;;;;5035918;28;20481;-51
2021/09/24 00:38:23;;;;;;;10.70;1.83;;;13.80;99.90;;;;;;5035578;28;20487;-47
2021/09/24 00:40:50;;;;;;;10.33;2.90;;;13.80;99.90;;;;;;5038995;28;20483;-51
2021/09/24 00:43:17;;;;;;;4.90;1.93;;;13.80;99.90;;;;;;5039359;28;20460;-52
2021/09/24 00:45:44;;;;;;;12.90;2.40;;;13.80;99.90;;;;;;5039722;28;20448;-50
2021/09/24 00:48:12;;;;;;;10.20;2.27;;;13.70;99.90;;;;;;5039431;28;20440;-52
2021/09/24 00:50:39;;;;;;;15.03;3.30;;;13.70;99.90;;;;;;5039591;28;20510;-50
2021/09/24 00:53:09;;;;;;;8.80;3.17;;;13.70;99.90;;;;;;5039806;28;20513;-49
2021/09/24 00:55:37;;;;;;;26.00;2.83;;;13.70;99.90;;;;;;5040071;28;20940;-49
2021/09/24 00:58:04;;;;;;;14.63;2.10;;;13.70;99.90;;;;;;5039416;28;20476;-50
2021/09/24 01:00:30;;;;;;;21.17;2.47;;;13.70;99.90;;;;;;5039237;28;20448;-50
2021/09/24 01:02:57;;;;;;;6.70;2.60;;;13.60;99.90;;;;;;5039672;28;20448;-48
2021/09/24 01:05:25;;;;;;;7.50;1.87;;;13.60;99.90;;;;;;5039337;28;20917;-46
2021/09/24 01:07:52;;;;;;;9.63;2.67;;;13.60;99.90;;;;;;5038940;28;20526;-50
2021/09/24 01:10:19;;;;;;;9.73;2.40;;;13.50;99.90;;;;;;5038782;28;20460;-46
2021/09/24 01:12:46;;;;;;;13.60;2.27;;;13.50;99.90;;;;;;5038831;28;20857;-51
2021/09/24 01:15:15;;;;;;;12.63;1.93;;;13.50;99.90;;;;;;5039568;28;20917;-51
2021/09/24 01:17:42;;;;;;;17.03;2.43;;;13.50;99.90;;;;;;5038982;28;20546;-50
2021/09/24 01:20:12;;;;;;;6.27;1.60;;;13.50;99.90;;;;;;5038605;28;20936;-49
2021/09/24 01:22:40;;;;;;;5.70;1.40;;;13.50;99.90;;;;;;5038468;28;20509;-50
2021/09/24 01:25:09;;;;;;;3.73;2.10;;;13.40;99.90;;;;;;5039011;28;21000;-49
2021/09/24 01:27:39;;;;;;;9.33;2.40;;;13.40;99.90;;;;;;5038326;28;20547;-49
2021/09/24 01:30:07;;;;;;;17.73;2.97;;;13.40;99.90;;;;;;5039521;28;20747;-49
2021/09/24 01:32:34;;;;;;;12.60;1.83;;;13.40;99.90;;;;;;5038437;28;20448;-49
2021/09/24 01:35:01;;;;;;;13.27;2.47;;;13.40;99.90;;;;;;5038497;28;20459;-48
2021/09/24 01:37:28;;;;;;;7.57;1.57;;;13.50;99.90;;;;;;5038146;28;20518;-50
2021/09/24 01:39:56;;;;;;;8.60;2.23;;;13.50;99.90;;;;;;5038663;28;20475;-50
2021/09/24 01:42:23;;;;;;;4.27;1.80;;;13.50;99.90;;;;;;5038682;28;20448;-49
2021/09/24 01:44:49;;;;;;;4.23;1.90;;;13.60;99.90;;;;;;5038070;28;20479;-47
2021/09/24 01:47:16;;;;;;;9.67;1.93;;;13.60;99.90;;;;;;5038108;28;20894;-51
2021/09/24 01:49:43;;;;;;;12.53;2.07;;;13.60;99.90;;;;;;5038040;28;20840;-46
2021/09/24 01:52:09;;;;;;;8.30;1.60;;;13.70;99.90;;;;;;5036559;28;20788;-49
2021/09/24 01:54:36;;;;;;;10.23;2.07;;;13.70;99.90;;;;;;5037933;28;20440;-51
2021/09/24 01:57:04;;;;;;;9.37;2.27;;;13.70;99.90;;;;;;5037872;28;20490;-47
2021/09/24 01:59:31;;;;;;;22.87;3.23;;;13.60;99.90;;;;;;5038097;28;20484;-50
2021/09/24 02:01:58;;;;;;;10.17;2.73;;;13.70;99.90;;;;;;5038174;28;20529;-51
2021/09/24 02:04:24;;;;;;;20.07;3.60;;;13.70;99.90;;;;;;5038160;28;20448;-48
2021/09/24 02:06:51;;;;;;;6.90;1.83;;;13.60;99.90;;;;;;5038289;28;20472;-47
2021/09/24 02:09:18;;;;;;;9.03;1.70;;;13.70;99.90;;;;;;5038088;28;21031;-50
2021/09/24 02:11:45;;;;;;;13.53;1.70;;;13.60;99.90;;;;;;5037396;28;20476;-45
2021/09/24 02:14:12;;;;;;;13.13;2.70;;;13.60;99.90;;;;;;5037782;28;20440;-50
2021/09/24 02:16:39;;;;;;;21.33;2.63;;;13.60;99.90;;;;;;5037919;28;20502;-48
2021/09/24 02:19:06;;;;;;;15.63;3.20;;;13.60;99.90;;;;;;5037515;28;20522;-52
2021/09/24 02:21:33;;;;;;;4.70;2.17;;;13.60;99.90;;;;;;5037673;28;20517;-47
2021/09/24 02:24:00;;;;;;;9.00;1.37;;;13.60;99.90;;;;;;5038253;28;20912;-46
2021/09/24 02:26:27;;;;;;;6.93;1.53;;;13.60;99.90;;;;;;5037998;28;20460;-48
2021/09/24 02:28:54;;;;;;;8.27;2.90;;;13.60;99.90;;;;;;5038149;28;20444;-46
2021/09/24 02:31:22;;;;;;;9.23;1.93;;;13.60;99.90;;;;;;5037711;28;20460;-46
2021/09/24 02:33:48;;;;;;;10.33;2.40;;;13.60;99.90;;;;;;5037434;28;20468;-46
2021/09/24 02:36:15;;;;;;;10.37;2.10;;;13.60;99.90;;;;;;5038537;28;20443;-46
2021/09/24 02:38:42;;;;;;;8.70;1.97;;;13.70;99.90;;;;;;5038250;28;20549;-46
2021/09/24 02:41:09;;;;;;;21.17;2.60;;;13.60;99.90;;;;;;5038329;28;20448;-46
2021/09/24 02:43:36;;;;;;;6.43;1.90;;;13.70;99.90;;;;;;5037803;28;20452;-46
2021/09/24 02:46:02;;;;;;;14.40;2.00;;;13.60;99.90;;;;;;5037984;28;20444;-47
2021/09/24 02:48:30;;;;;;;8.30;2.70;;;13.70;99.90;;;;;;5037803;28;20513;-46
2021/09/24 02:50:57;;;;;;;10.60;3.67;;;13.70;99.90;;;;;;5037614;28;20487;-50
2021/09/24 02:53:24;;;;;;;11.07;2.80;;;13.70;99.90;;;;;;5037605;28;20490;-55
2021/09/24 02:55:51;;;;;;;13.90;2.23;;;13.70;99.90;;;;;;5036806;28;20443;-50
2021/09/24 02:58:18;;;;;;;13.17;2.43;;;13.70;99.90;;;;;;5036675;28;20492;-52
2021/09/24 03:00:44;;;;;;;12.70;3.10;;;13.60;99.90;;;;;;5036424;28;20444;-53
2021/09/24 03:03:11;;;;;;;10.97;2.37;;;13.60;99.90;;;;;;5037093;28;20447;-48
2021/09/24 03:05:39;;;;;;;12.20;2.27;;;13.50;99.90;;;;;;5036730;28;20448;-48
2021/09/24 03:08:06;;;;;;;8.00;1.97;;;13.60;99.90;;;;;;5036754;28;20590;-51
2021/09/24 03:10:33;;;;;;;9.93;2.13;;;13.60;99.90;;;;;;5036322;28;20448;-47
2021/09/24 03:12:59;;;;;;;7.63;1.90;;;13.50;99.90;;;;;;5036951;28;20440;-48
2021/09/24 03:15:26;;;;;;;14.00;2.03;;;13.60;99.90;;;;;;5036754;28;20506;-49
2021/09/24 03:17:53;;;;;;;7.13;1.73;;;13.60;99.90;;;;;;5036851;28;20479;-49
2021/09/24 03:20:19;;;;;;;8.27;2.17;;;13.60;99.90;;;;;;5036790;28;20470;-51
2021/09/24 03:22:47;;;;;;;13.03;2.03;;;13.60;99.90;;;;;;5037141;28;20451;-48
2021/09/24 03:25:14;;;;;;;13.53;2.40;;;13.50;99.90;;;;;;5036421;28;20453;-47
2021/09/24 03:27:41;;;;;;;8.50;2.03;;;13.50;99.90;;;;;;5036942;28;20444;-50
2021/09/24 03:30:09;;;;;;;10.23;1.90;;;13.60;99.90;;;;;;5035974;28;20441;-48
2021/09/24 03:32:36;;;;;;;10.47;2.30;;;13.50;99.90;;;;;;5035997;28;20844;-50
2021/09/24 03:35:05;;;;;;;6.67;2.20;;;13.60;99.90;;;;;;5036637;28;20520;-51
2021/09/24 03:37:31;;;;;;;15.83;2.20;;;13.60;99.90;;;;;;5036432;28;20486;-49
2021/09/24 03:39:59;;;;;;;12.10;1.40;;;13.50;99.90;;;;;;5036381;28;20460;-48
2021/09/24 03:42:26;;;;;;;8.33;2.10;;;13.60;99.90;;;;;;5036283;28;20444;-50
2021/09/24 03:44:53;;;;;;;11.83;3.93;;;13.60;99.90;;;;;;5036152;28;20502;-50
2021/09/24 03:47:20;;;;;;;16.33;2.67;;;13.60;99.90;;;;;;5036240;28;20464;-47
2021/09/24 03:49:46;;;;;;;14.13;3.00;;;13.50;99.90;;;;;;5036735;28;20444;-48
2021/09/24 03:52:13;;;;;;;8.53;3.20;;;13.60;99.90;;;;;;5036532;28;20444;-50
2021/09/24 03:54:40;;;;;;;4.90;1.87;;;13.60;99.90;;;;;;5036346;28;20428;-48
2021/09/24 03:57:09;;;;;;;7.60;2.10;;;13.60;99.90;;;;;;5035850;28;20452;-49
2021/09/24 03:59:36;;;;;;;11.17;1.50;;;13.60;99.90;;;;;;5036135;28;20512;-47
2021/09/24 04:02:03;;;;;;;14.97;2.50;;;13.60;99.90;;;;;;5035811;28;20460;-47
2021/09/24 04:04:29;;;;;;;7.50;1.33;;;13.70;99.90;;;;;;5036463;28;20441;-48
2021/09/24 04:06:56;;;;;;;3.57;1.70;;;13.60;99.90;;;;;;5035713;28;20522;-50
2021/09/24 04:09:23;;;;;;;5.57;1.87;;;13.50;99.90;;;;;;5034600;28;20475;-45
2021/09/24 04:11:49;;;;;;;7.60;2.20;;;13.50;99.90;;;;;;5035820;28;20479;-52
2021/09/24 04:14:21;;;;;;;16.47;3.33;;;13.40;99.90;;;;;;5036924;28;20447;-47
2021/09/24 04:16:48;;;;;;;6.20;1.53;;;13.50;99.90;;;;;;5040591;28;20428;-51
2021/09/24 04:19:14;;;;;;;9.20;1.70;;;13.40;99.90;;;;;;5039582;28;20550;-47
2021/09/24 04:21:41;;;;;;;7.23;2.70;;;13.30;99.90;;;;;;5039402;28;20929;-52
2021/09/24 04:24:08;;;;;;;9.10;2.20;;;13.30;99.90;;;;;;5039708;28;20448;-50
2021/09/24 04:26:34;;;;;;;11.53;1.77;;;13.30;99.90;;;;;;5039893;28;20448;-47
2021/09/24 04:29:03;;;;;;;15.70;1.97;;;13.30;99.90;;;;;;5039998;28;20452;-48
2021/09/24 04:31:31;;;;;;;12.63;2.93;;;13.30;99.90;;;;;;5039572;28;20498;-45
2021/09/24 04:33:57;;;;;;;10.43;1.77;;;13.30;99.90;;;;;;5040090;28;20440;-49
2021/09/24 04:36:24;;;;;;;14.87;2.33;;;13.30;99.90;;;;;;5039348;28;20463;-46
2021/09/24 04:38:50;;;;;;;11.33;2.70;;;13.30;99.90;;;;;;5038715;28;21045;-46
2021/09/24 04:41:17;;;;;;;10.17;1.67;;;13.30;99.90;;;;;;5039546;28;20952;-48
2021/09/24 04:43:44;;;;;;;10.03;1.83;;;13.30;99.90;;;;;;5039866;28;20448;-49
2021/09/24 04:46:11;;;;;;;9.23;1.90;;;13.30;99.90;;;;;;5039877;28;20451;-49
2021/09/24 04:48:38;;;;;;;7.93;1.63;;;13.40;99.90;;;;;;5039048;28;20974;-50
2021/09/24 04:51:05;;;;;;;18.07;3.93;;;13.40;99.90;;;;;;5039326;28;20478;-50
2021/09/24 04:53:32;;;;;;;13.80;2.50;;;13.30;99.90;;;;;;5039187;28;20452;-49
2021/09/24 04:55:58;;;;;;;7.30;2.17;;;13.30;99.90;;;;;;5039599;28;20967;-47
2021/09/24 04:58:25;;;;;;;14.47;2.67;;;13.40;99.90;;;;;;5040082;28;20479;-49
2021/09/24 05:00:52;;;;;;;5.97;1.60;;;13.40;99.90;;;;;;5039961;28;20451;-45
2021/09/24 05:03:18;;;;;;;13.27;2.97;;;13.40;99.90;;;;;;5039334;28;20613;-47
2021/09/24 05:05:46;;;;;;;6.47;1.73;;;13.30;99.90;;;;;;5038897;28;20526;-48
2021/09/24 05:08:13;;;;;;;8.77;2.50;;;13.40;99.90;;;;;;5039022;28;20436;-50
2021/09/24 05:10:40;;;;;;;6.63;1.53;;;13.40;99.90;;;;;;5039421;28;20920;-52
2021/09/24 05:13:06;;;;;;;19.47;2.97;;;13.40;99.90;;;;;;5039096;28;20432;-46
2021/09/24 05:15:33;;;;;;;13.87;3.20;;;13.40;99.90;;;;;;5039243;28;20502;-51
2021/09/24 05:18:00;;;;;;;6.63;2.90;;;13.40;99.90;;;;;;5039297;28;20539;-53
2021/09/24 05:20:29;;;;;;;11.53;2.40;;;13.50;99.90;;;;;;5038731;28;20550;-51
2021/09/24 05:22:58;;;;;;;16.70;3.23;;;13.50;99.90;;;;;;5039350;28;20784;-46
2021/09/24 05:25:25;;;;;;;7.93;2.23;;;13.50;99.90;;;;;;5038207;28;20531;-51
2021/09/24 05:27:52;;;;;;;10.40;2.33;;;13.40;99.90;;;;;;5038419;28;20493;-48
2021/09/24 05:30:20;;;;;;;5.40;2.20;;;13.40;99.90;;;;;;5038743;28;20513;-50
2021/09/24 05:32:47;;;;;;;7.30;2.43;;;13.40;99.90;;;;;;5038119;28;20815;-47
2021/09/24 05:35:15;;;;;;;11.20;2.10;;;13.40;99.90;;;;;;5030301;28;20949;-50
2021/09/24 05:37:41;;;;;;;12.70;2.40;;;13.40;99.90;;;;;;5032303;28;20492;-48
2021/09/24 05:40:11;;;;;;;18.07;2.23;;;13.40;99.90;;;;;;5031287;28;21738;-51
2021/09/24 05:42:37;;;;;;;12.03;2.23;;;13.40;99.90;;;;;;5033170;28;20932;-47
2021/09/24 05:45:06;;;;;;;7.40;1.67;;;13.50;99.90;;;;;;5030620;28;20449;-47
2021/09/24 05:47:32;;;;;;;10.73;2.80;;;13.50;99.90;;;;;;5027445;28;20458;-49
2021/09/24 05:50:05;;;;;;;6.40;2.17;;;13.50;99.90;;;;;;5025040;28;20433;-46
2021/09/24 05:52:32;;;;;;;4.87;2.07;;;13.60;99.90;;;;;;5041431;28;20599;-48
2021/09/24 05:54:58;;;;;;;11.80;2.80;;;13.60;99.90;;;;;;5040776;28;20456;-47
2021/09/24 05:57:26;;;;;;;4.50;2.13;;;13.60;99.90;;;;;;5042770;28;20901;-45
2021/09/24 05:59:53;;;;;;;13.77;2.93;;;13.50;99.90;;;;;;5045703;28;20506;-46
2021/09/24 06:02:19;;;;;;;16.97;2.93;;;13.40;99.90;;;;;;5041780;28;20448;-49
2021/09/24 06:04:46;;;;;;;8.73;2.53;;;13.50;99.90;;;;;;5041584;28;20482;-53
2021/09/24 06:07:13;;;;;;;7.60;1.60;;;13.40;99.90;;;;;;5041011;28;20444;-48
2021/09/24 06:09:39;;;;;;;11.63;1.53;;;13.50;99.90;;;;;;5040197;28;20483;-47
2021/09/24 06:12:07;;;;;;;16.30;2.60;;;13.40;99.90;;;;;;5038153;28;20507;-51
2021/09/24 06:14:35;;;;;;;5.70;1.43;;;13.50;99.90;;;;;;5031666;28;20495;-53
2021/09/24 06:17:01;;;;;;;13.00;1.77;;;13.40;99.90;;;;;;5029066;28;20437;-51
2021/09/24 06:19:28;;;;;;;19.77;2.40;;;13.40;99.90;;;;;;5017938;28;20527;-51
2021/09/24 06:21:55;;;;;;;8.17;2.13;;;13.40;99.90;;;;;;5048145;28;20449;-49
2021/09/24 06:24:24;;;;;;;9.60;1.93;;;13.40;99.90;;;;;;5057999;28;20432;-47
2021/09/24 06:26:51;;;;;;;5.37;1.87;;;13.40;99.90;;;;;;5058364;28;20436;-48
2021/09/24 06:29:17;;;;;;;10.47;2.60;;;13.30;99.90;;;;;;5059037;28;20467;-48
2021/09/24 06:31:47;;;;;;;16.07;2.10;;;13.30;99.90;;;;;;5058981;28;20451;-47
2021/09/24 06:34:14;;;;;;;11.37;2.63;;;13.40;99.90;;;;;;5058616;28;20459;-52
2021/09/24 06:36:42;;;;;;;10.20;2.70;;;13.40;99.90;;;;;;5043386;28;20429;-50
2021/09/24 06:39:09;;;;;;;6.93;2.20;;;13.40;99.90;;;;;;5038077;28;20479;-49
2021/09/24 06:41:38;;;;;;;11.73;2.00;;;13.40;99.90;;;;;;5038336;28;20428;-50
2021/09/24 06:44:07;;;;;;;7.80;2.80;;;13.40;99.90;;;;;;5054600;28;20432;-50
2021/09/24 06:46:34;;;;;;;16.97;3.20;;;13.40;99.90;;;;;;5058380;28;20428;-52
2021/09/24 06:49:02;;;;;;;3.17;1.40;;;13.40;99.90;;;;;;5049762;28;20421;-52
2021/09/24 06:51:28;;;;;;;13.20;2.40;;;13.40;99.90;;;;;;5038170;28;20433;-50
2021/09/24 06:53:55;;;;;;;15.43;3.30;;;13.30;99.90;;;;;;5043369;28;20458;-53
2021/09/24 06:56:22;;;;;;;11.30;2.20;;;13.40;99.90;;;;;;5052115;28;20532;-51
2021/09/24 06:58:48;;;;;;;8.23;2.40;;;13.40;99.90;;;;;;5057726;28;20480;-51
2021/09/24 07:01:15;;;;;;;10.20;2.17;;;13.40;99.90;;;;;;5058049;28;20478;-47
2021/09/24 07:03:41;;;;;;;7.63;2.00;;;13.40;99.90;;;;;;5058199;28;20424;-46
2021/09/24 07:06:10;;;;;;;7.07;2.30;;;13.40;99.90;;;;;;5058257;28;20440;-47
2021/09/24 07:08:36;;;;;;;5.50;2.60;;;13.50;99.90;;;;;;5057935;28;20424;-50
2021/09/24 07:11:03;;;;;;;8.90;2.40;;;13.60;99.90;;;;;;5041664;28;20453;-48
2021/09/24 07:13:30;;;;;;;15.87;2.53;;;13.60;99.90;;;;;;5049594;28;20436;-49
2021/09/24 07:15:56;;;;;;;10.10;1.70;;;13.60;99.90;;;;;;5040578;28;20425;-51
2021/09/24 07:18:23;;;;;;;8.63;2.50;;;13.60;99.90;;;;;;5038265;28;20481;-46
2021/09/24 07:20:50;;;;;;;11.60;2.33;;;13.60;99.90;;;;;;5037767;28;20488;-46
2021/09/24 07:23:18;;;;;;;7.60;1.57;;;13.60;99.90;;;;;;5037570;28;20441;-46
2021/09/24 07:25:44;;;;;;;10.00;3.20;;;13.60;99.90;;;;;;5037192;28;20457;-45
2021/09/24 07:28:11;;;;;;;10.87;2.43;;;13.70;99.90;;;;;;5037882;28;20425;-46
2021/09/24 07:30:37;;;;;;;5.93;1.70;;;13.70;99.90;;;;;;5037747;28;20421;-49
2021/09/24 07:33:04;;;;;;;10.53;1.70;;;13.80;99.90;;;;;;5037218;28;20444;-46
2021/09/24 07:35:31;;;;;;;15.30;1.93;;;13.90;99.90;;;;;;5037548;28;20441;-46
2021/09/24 07:37:57;;;;;;;14.70;2.37;;;14.00;99.90;;;;;;5037466;28;20449;-49
2021/09/24 07:40:27;;;;;;;10.83;4.40;;;14.10;99.90;;;;;;5037446;28;20476;-49
2021/09/24 07:42:54;;;;;;;9.17;1.67;;;14.20;99.90;;;;;;5037834;28;20440;-46
2021/09/24 07:45:22;;;;;;;11.97;2.30;;;14.30;99.90;;;;;;5037683;28;20433;-49
2021/09/24 07:47:48;;;;;;;13.80;3.30;;;14.40;99.90;;;;;;5037922;28;20463;-47
2021/09/24 07:50:15;;;;;;;4.63;1.63;;;14.50;99.90;;;;;;5036243;28;20437;-50
2021/09/24 07:52:42;;;;;;;10.33;2.10;;;14.50;99.90;;;;;;5037691;28;20442;-47
2021/09/24 07:55:11;;;;;;;6.70;2.53;;;14.60;99.90;;;;;;5038951;28;20456;-45
2021/09/24 07:57:39;;;;;;;5.07;1.73;;;14.70;99.90;;;;;;5057902;28;20432;-48
2021/09/24 08:00:08;;;;;;;5.00;1.23;;;14.80;99.90;;;;;;5058109;28;20514;-51
2021/09/24 08:02:35;;;;;;;9.60;2.43;;;14.90;99.90;;;;;;5056854;28;20471;-46
2021/09/24 08:05:01;;;;;;;8.53;2.03;;;15.00;99.90;;;;;;5057000;28;20432;-51
2021/09/24 08:07:28;;;;;;;9.40;1.93;;;15.00;99.90;;;;;;5057139;28;20440;-48
2021/09/24 08:09:55;;;;;;;7.07;2.17;;;15.10;99.90;;;;;;5056795;28;20425;-53
2021/09/24 08:12:22;;;;;;;11.37;3.07;;;15.20;99.90;;;;;;5054426;28;20487;-51
2021/09/24 08:14:50;;;;;;;8.20;3.27;;;15.30;99.90;;;;;;5039314;28;20444;-48
2021/09/24 08:17:16;;;;;;;10.40;2.60;;;15.50;99.90;;;;;;5057019;28;20502;-51
2021/09/24 08:19:43;;;;;;;8.40;2.67;;;15.60;99.90;;;;;;5056706;28;20507;-52
2021/09/24 08:22:10;;;;;;;6.13;1.87;;;16.10;99.90;;;;;;5056500;28;20448;-48
2021/09/24 08:24:36;;;;;;;8.30;2.13;;;16.90;99.90;;;;;;5049310;28;20484;-49
2021/09/24 08:27:03;;;;;;;5.83;2.27;;;18.20;99.90;;;;;;5033146;28;20468;-48
2021/09/24 08:29:30;;;;;;;13.67;1.97;;;19.50;99.90;;;;;;5031615;28;20441;-46
2021/09/24 08:31:59;;;;;;;5.80;3.10;;;20.50;99.90;;;;;;5032814;28;20440;-49
2021/09/24 08:34:26;;;;;;;8.23;3.63;;;21.10;99.90;;;;;;5032861;28;20814;-52
2021/09/24 08:36:53;;;;;;;6.83;1.80;;;21.20;99.90;;;;;;5034081;28;20506;-52
2021/09/24 08:39:20;;;;;;;6.23;1.93;;;21.20;99.90;;;;;;5034487;28;20843;-52
2021/09/24 08:41:47;;;;;;;18.17;2.70;;;21.00;99.90;;;;;;5033115;28;20522;-49
2021/09/24 08:44:13;;;;;;;12.63;4.20;;;21.40;99.90;;;;;;5034040;28;20464;-52
2021/09/24 08:46:41;;;;;;;7.17;2.27;;;21.70;99.90;;;;;;5032051;28;20506;-53
2021/09/24 08:49:09;;;;;;;9.93;2.10;;;22.50;99.90;;;;;;5033273;28;20448;-49
2021/09/24 08:51:36;;;;;;;8.00;2.17;;;22.60;99.90;;;;;;5033547;28;20492;-50
2021/09/24 08:54:03;;;;;;;7.77;2.07;;;22.70;98.10;;;;;;5033576;28;20455;-52
2021/09/24 08:56:30;;;;;;;5.40;1.83;;;22.80;96.90;;;;;;5033428;28;20448;-51
2021/09/24 08:58:59;;;;;;;7.03;1.87;;;22.80;95.90;;;;;;5033040;28;20479;-51
2021/09/24 09:01:26;;;;;;;7.37;2.90;;;22.60;96.30;;;;;;5035614;28;20832;-52
2021/09/24 09:03:55;;;;;;;8.43;2.03;;;22.70;96.00;;;;;;5037113;28;20519;-52
2021/09/24 09:06:24;;;;;;;8.40;2.17;;;22.30;96.70;;;;;;5037061;28;20444;-50
2021/09/24 09:08:50;;;;;;;10.00;2.27;;;22.30;96.20;;;;;;5036910;28;20463;-51
2021/09/24 09:11:19;;;;;;;7.50;2.00;;;22.30;95.80;;;;;;5036527;28;20879;-54
2021/09/24 09:13:49;;;;;;;6.10;2.07;;;22.40;96.50;;;;;;5036564;28;20448;-50
2021/09/24 09:16:18;;;;;;;6.87;2.30;;;22.50;95.00;;;;;;5036776;28;20441;-51
2021/09/24 09:18:47;;;;;;;6.70;2.30;;;22.00;96.00;;;;;;5036747;28;20456;-50
2021/09/24 09:21:16;;;;;;;7.10;2.23;;;21.70;96.50;;;;;;5036629;28;20476;-51
2021/09/24 09:23:52;;;;;;;8.90;2.27;;;21.00;97.10;;;;;;5036547;28;21094;-51
2021/09/24 09:26:20;;;;;;;10.20;2.60;;;20.40;98.60;;;;;;5036498;28;20793;-49
2021/09/24 09:28:52;;;;;;;7.23;2.17;;;19.80;99.90;;;;;;5036953;28;20531;-49
2021/09/24 09:31:24;;;;;;;6.03;2.10;;;19.30;99.90;;;;;;5036381;28;20800;-47
2021/09/24 09:33:51;;;;;;;7.23;2.20;;;19.30;99.90;;;;;;5036806;28;20428;-50
2021/09/24 09:36:26;;;;;;;8.03;1.60;;;19.10;99.90;;;;;;5036498;28;20875;-53
2021/09/24 09:38:55;;;;;;;5.07;2.87;;;19.10;99.90;;;;;;5036246;28;20464;-51
2021/09/24 09:41:23;;;;;;;6.73;1.67;;;19.00;99.90;;;;;;5036343;28;20494;-51
2021/09/24 09:43:52;;;;;;;5.50;2.93;;;19.10;99.90;;;;;;5036810;28;20448;-49
2021/09/24 09:46:22;;;;;;;8.47;2.27;;;19.30;99.90;;;;;;5036076;28;20444;-52
2021/09/24 09:49:01;;;;;;;16.87;3.20;;;19.60;99.90;;;;;;5036025;28;20444;-52
2021/09/24 09:51:28;;;;;;;7.03;1.90;;;20.10;99.90;;;;;;5036351;28;20519;-54
2021/09/24 09:53:56;;;;;;;6.37;4.50;;;20.00;99.90;;;;;;5036205;28;20456;-54
2021/09/24 09:56:35;;;;;;;6.13;1.70;;;19.50;99.90;;;;;;5036068;28;20452;-53
2021/09/24 09:59:02;;;;;;;9.53;3.23;;;19.00;99.90;;;;;;5036283;28;20433;-50
2021/09/24 10:01:28;;;;;;;10.93;2.00;;;18.90;99.90;;;;;;5035775;28;20533;-53
2021/09/24 10:03:55;;;;;;;6.07;1.60;;;18.80;99.90;;;;;;5035696;28;20782;-50
2021/09/24 10:06:24;;;;;;;12.57;2.30;;;18.70;99.90;;;;;;5036293;28;20827;-48
2021/09/24 10:08:53;;;;;;;8.50;2.37;;;18.50;99.90;;;;;;5036100;28;20441;-52
2021/09/24 10:11:29;;;;;;;5.67;1.50;;;18.40;99.90;;;;;;5035787;28;20479;-48
2021/09/24 10:13:58;;;;;;;5.50;1.70;;;18.40;99.90;;;;;;5035689;28;20842;-45
2021/09/24 10:16:26;;;;;;;10.50;2.13;;;18.20;99.90;;;;;;5036754;28;20510;-54
2021/09/24 10:18:54;;;;;;;5.37;2.33;;;18.00;99.90;;;;;;5037148;28;20444;-53
2021/09/24 10:21:21;;;;;;;12.10;2.40;;;17.90;99.90;;;;;;5036112;28;20641;-49
2021/09/24 10:23:49;;;;;;;6.03;2.00;;;17.90;99.90;;;;;;5036377;28;20448;-50
2021/09/24 10:26:24;;;;;;;13.17;2.57;;;17.80;99.90;;;;;;5036214;28;20448;-49
2021/09/24 10:28:57;;;;;;;5.60;1.67;;;17.90;99.90;;;;;;5036235;28;20440;-47
2021/09/24 10:31:26;;;;;;;7.37;2.13;;;18.00;99.90;;;;;;5036223;28;20494;-48
2021/09/24 10:34:00;;;;;;;4.60;1.73;;;18.10;99.90;;;;;;5035868;28;20555;-52
2021/09/24 10:36:42;;;;;;;3.10;2.00;;;18.10;99.90;;;;;;5036252;28;20448;-48
2021/09/24 10:39:34;;;;;;;5.97;2.50;;;18.20;99.90;;;;;;5036199;28;20494;-51
2021/09/24 10:42:23;;;;;;;7.00;2.17;;;18.30;99.90;;;;;;5027119;28;20480;-47
2021/09/24 10:45:13;;;;;;;4.43;2.20;;;18.30;99.90;;;;;;5037043;28;20452;-51
2021/09/24 10:47:50;;;;;;;9.73;2.60;;;18.20;99.90;;;;;;5035562;28;20440;-53
2021/09/24 10:51:02;;;;;;;11.33;2.00;;;18.10;99.90;;;;;;5035317;28;21119;-55
2021/09/24 10:53:46;;;;;;;6.83;1.90;;;18.10;99.90;;;;;;4999815;28;20448;-54
2021/09/24 10:56:31;;;;;;;3.07;1.43;;;18.00;99.90;;;;;;5036035;28;20563;-51
2021/09/24 10:59:24;;;;;;;2.90;1.10;;;17.90;99.90;;;;;;5036147;28;20504;-49
2021/09/24 11:01:51;;;;;;;4.50;1.77;;;17.80;99.90;;;;;;5032681;28;20991;-49
2021/09/24 11:04:19;;;;;;;5.27;1.43;;;17.60;99.90;;;;;;5028311;28;20456;-52
2021/09/24 11:06:48;;;;;;;5.80;2.00;;;17.50;99.90;;;;;;5033494;28;20448;-52
2021/09/24 11:09:16;;;;;;;3.77;1.40;;;17.30;99.90;;;;;;5032471;28;20901;-49
2021/09/24 11:11:46;;;;;;;5.87;2.50;;;17.30;99.90;;;;;;5034480;28;20479;-53
2021/09/24 11:14:32;;;;;;;6.10;2.50;;;17.30;99.90;;;;;;5036770;28;20487;-48
2021/09/24 11:17:00;;;;;;;7.20;2.07;;;17.40;99.90;;;;;;5036800;28;20440;-51
2021/09/24 11:19:45;;;;;;;6.30;2.40;;;17.50;99.90;;;;;;5034922;28;20796;-52
2021/09/24 11:22:22;;;;;;;10.17;2.47;;;17.50;99.90;;;;;;5035316;28;20494;-53
2021/09/24 11:25:05;;;;;;;4.93;3.53;;;17.60;99.90;;;;;;5034853;28;20444;-51
2021/09/24 11:27:34;;;;;;;11.53;2.00;;;17.50;99.90;;;;;;5033744;28;20529;-48
2021/09/24 11:30:15;;;;;;;4.40;1.50;;;17.50;99.90;;;;;;5030327;28;20437;-51
2021/09/24 11:32:43;;;;;;;7.13;1.70;;;17.50;99.90;;;;;;5040044;28;20502;-52
2021/09/24 11:35:12;;;;;;;5.50;1.43;;;17.50;99.90;;;;;;5037096;28;20428;-51
2021/09/24 11:37:41;;;;;;;8.10;1.63;;;17.60;99.90;;;;;;5037393;28;21059;-48
2021/09/24 11:40:10;;;;;;;5.90;1.60;;;17.70;99.90;;;;;;5036695;28;20483;-49
2021/09/24 11:42:39;;;;;;;4.30;1.37;;;17.70;99.90;;;;;;5036983;28;20912;-54
2021/09/24 11:45:08;;;;;;;4.23;1.33;;;17.70;99.90;;;;;;5035842;28;21043;-50
2021/09/24 11:47:40;;;;;;;6.87;2.23;;;17.70;99.90;;;;;;5035406;28;20486;-47
2021/09/24 11:50:09;;;;;;;8.23;1.80;;;17.60;99.90;;;;;;5034144;28;20912;-49
2021/09/24 11:52:40;;;;;;;2.10;1.30;;;17.60;99.90;;;;;;5035511;28;20459;-53
2021/09/24 11:55:22;;;;;;;3.43;1.73;;;17.60;99.90;;;;;;5034682;28;20452;-53
2021/09/24 11:57:58;;;;;;;3.90;2.07;;;17.50;99.90;;;;;;5033978;28;20452;-48
2021/09/24 12:00:25;;;;;;;6.53;1.90;;;17.40;99.90;;;;;;5034969;28;20483;-49
2021/09/24 12:03:07;;;;;;;6.47;1.57;;;17.30;99.90;;;;;;5035440;28;20444;-51
2021/09/24 12:05:34;;;;;;;2.07;1.40;;;17.30;99.90;;;;;;5034972;28;20436;-55
2021/09/24 12:08:01;;;;;;;5.53;1.40;;;17.30;99.90;;;;;;5035423;28;20444;-50
2021/09/24 12:10:28;;;;;;;2.30;1.07;;;17.30;99.90;;;;;;5034761;28;20440;-51
2021/09/24 12:13:07;;;;;;;1.67;1.13;;;17.40;99.90;;;;;;5016520;28;20445;-52
2021/09/24 12:15:53;;;;;;;3.87;1.43;;;17.40;99.90;;;;;;5014847;28;20803;-50
2021/09/24 12:18:22;;;;;;;4.13;1.10;;;17.40;99.90;;;;;;5030356;28;20851;-47
2021/09/24 12:20:57;;;;;;;3.97;1.73;;;17.50;99.90;;;;;;5027980;28;20992;-51
2021/09/24 12:23:24;;;;;;;1.47;1.30;;;17.60;99.90;;;;;;5014141;28;20832;-52
2021/09/24 12:25:57;;;;;;;4.27;1.23;;;17.60;99.90;;;;;;5014371;28;20523;-54
2021/09/24 12:28:24;;;;;;;4.90;1.53;;;17.60;99.90;;;;;;5014078;28;20429;-52
2021/09/24 12:30:51;;;;;;;2.33;1.20;;;17.60;99.90;;;;;;5013923;28;20441;-51
2021/09/24 12:33:21;;;;;;;2.80;1.40;;;17.60;99.90;;;;;;5014587;28;20453;-50
2021/09/24 12:36:01;;;;;;;2.40;1.27;;;17.60;99.90;;;;;;5015305;28;20552;-47
2021/09/24 12:38:29;;;;;;;4.47;1.37;;;17.50;99.90;;;;;;5018019;28;20494;-48
2021/09/24 12:41:11;;;;;;;1.80;1.13;;;17.50;99.90;;;;;;5017694;28;20477;-49
2021/09/24 12:43:43;;;;;;;4.90;1.43;;;17.40;99.90;;;;;;5018061;28;20830;-49
2021/09/24 12:46:11;;;;;;;4.30;1.53;;;17.40;99.90;;;;;;5030521;28;20429;-53
2021/09/24 12:48:41;;;;;;;3.93;1.20;;;17.40;99.90;;;;;;5029059;28;20432;-49
2021/09/24 12:51:14;;;;;;;1.50;1.40;;;17.50;99.90;;;;;;5030535;28;20452;-48